Time,TemperatureF,DewpointF,PressureIn,WindDirection,WindDirectionDegrees,WindSpeedMPH,WindSpeedGustMPH,Humidity,HourlyPrecipIn,Conditions,Clouds,dailyrainin,SoftwareType,DateUTC
2013-03-20 00:00:00,33.2,21.6,30.15,West,261,4.0,9.0,62,0.00,,,0.75,Wunderground v.1.15,2013-03-20 04:00:00,
2013-03-20 00:10:00,33.3,21.7,30.15,WSW,249,4.0,4.0,62,0.00,,,0.00,Wunderground v.1.15,2013-03-20 04:10:00,
2013-03-20 00:20:00,33.2,21.6,30.16,WSW,258,4.0,5.0,62,0.00,,,0.00,Wunderground v.1.15,2013-03-20 04:20:00,
2013-03-20 00:30:00,33.1,21.5,30.16,West,261,4.0,7.0,62,0.00,,,0.00,Wunderground v.1.15,2013-03-20 04:30:00,
2013-03-20 00:40:00,33.2,21.6,30.16,WSW,254,4.0,4.0,62,0.00,,,0.00,Wunderground v.1.15,2013-03-20 04:40:00,
2013-03-20 00:50:00,33.0,21.8,30.16,WSW,240,4.0,4.0,63,0.00,,,0.00,Wunderground v.1.15,2013-03-20 04:50:00,
2013-03-20 01:01:00,32.8,22.0,30.16,West,259,4.0,4.0,64,0.00,,,0.00,Wunderground v.1.15,2013-03-20 05:01:00,
2013-03-20 01:10:00,32.5,21.7,30.16,WSW,242,4.0,4.0,64,0.00,,,0.00,Wunderground v.1.15,2013-03-20 05:10:00,
2013-03-20 01:20:00,32.6,21.4,30.15,SW,236,4.0,5.0,63,0.00,,,0.00,Wunderground v.1.15,2013-03-20 05:20:00,
2013-03-20 01:30:00,32.6,21.4,30.15,West,265,4.0,4.0,63,0.00,,,0.00,Wunderground v.1.15,2013-03-20 05:30:00,
2013-03-20 01:40:00,32.4,21.6,30.15,West,271,4.0,6.0,64,0.00,,,0.00,Wunderground v.1.15,2013-03-20 05:40:00,
2013-03-20 01:50:00,32.4,21.6,30.15,WSW,248,4.0,7.0,64,0.00,,,0.00,Wunderground v.1.15,2013-03-20 05:50:00,
2013-03-20 02:00:00,32.3,21.5,30.15,West,273,5.0,5.0,64,0.00,,,0.00,Wunderground v.1.15,2013-03-20 06:00:00,
2013-03-20 02:10:00,32.3,21.5,30.15,West,264,5.0,5.0,64,0.00,,,0.00,Wunderground v.1.15,2013-03-20 06:10:00,
2013-03-20 02:20:00,32.2,21.4,30.15,West,260,5.0,7.0,64,0.00,,,0.00,Wunderground v.1.15,2013-03-20 06:20:00,
2013-03-20 02:30:00,32.1,21.3,30.14,West,264,5.0,6.0,64,0.00,,,0.00,Wunderground v.1.15,2013-03-20 06:30:00,
2013-03-20 02:40:00,31.9,21.1,30.14,West,281,4.0,4.0,64,0.00,,,0.00,Wunderground v.1.15,2013-03-20 06:40:00,
2013-03-20 02:50:00,31.6,20.8,30.14,West,262,4.0,4.0,64,0.00,,,0.00,Wunderground v.1.15,2013-03-20 06:50:00,
2013-03-20 03:00:00,31.6,20.8,30.14,West,268,4.0,4.0,64,0.00,,,0.00,Wunderground v.1.15,2013-03-20 07:00:00,
2013-03-20 03:10:00,31.6,20.4,30.13,WSW,250,4.0,4.0,63,0.00,,,0.00,Wunderground v.1.15,2013-03-20 07:10:00,
2013-03-20 03:20:00,31.4,20.6,30.13,West,271,4.0,4.0,64,0.00,,,0.00,Wunderground v.1.15,2013-03-20 07:20:00,
2013-03-20 03:30:00,31.2,20.4,30.13,WSW,257,4.0,4.0,64,0.00,,,0.00,Wunderground v.1.15,2013-03-20 07:30:00,
2013-03-20 03:40:00,31.2,20.4,30.13,WSW,248,4.0,4.0,64,0.00,,,0.00,Wunderground v.1.15,2013-03-20 07:40:00,
2013-03-20 03:50:00,31.3,19.8,30.12,SW,225,4.0,4.0,62,0.00,,,0.00,Wunderground v.1.15,2013-03-20 07:50:00,
2013-03-20 04:00:00,31.1,20.0,30.12,West,270,4.0,4.0,63,0.00,,,0.00,Wunderground v.1.15,2013-03-20 08:00:00,
2013-03-20 04:10:00,30.6,19.9,30.11,West,275,3.0,4.0,64,0.00,,,0.00,Wunderground v.1.15,2013-03-20 08:10:00,
2013-03-20 04:20:00,30.5,19.4,30.11,WSW,241,3.0,3.0,63,0.00,,,0.00,Wunderground v.1.15,2013-03-20 08:20:00,
2013-03-20 04:31:00,30.2,19.5,30.10,WSW,241,2.0,3.0,64,0.00,,,0.00,Wunderground v.1.15,2013-03-20 08:31:00,
2013-03-20 04:40:00,30.0,20.0,30.10,WSW,239,3.0,3.0,66,0.00,,,0.00,Wunderground v.1.15,2013-03-20 08:40:00,
2013-03-20 04:50:00,29.8,19.8,30.10,WSW,242,2.0,2.0,66,0.00,,,0.00,Wunderground v.1.15,2013-03-20 08:50:00,
2013-03-20 05:00:00,29.8,19.8,30.09,WSW,257,3.0,3.0,66,0.00,,,0.00,Wunderground v.1.15,2013-03-20 09:00:00,
2013-03-20 05:10:00,29.5,20.2,30.09,WSW,246,2.0,2.0,68,0.00,,,0.00,Wunderground v.1.15,2013-03-20 09:10:00,
2013-03-20 05:20:00,29.4,19.8,30.09,WSW,246,1.0,2.0,67,0.00,,,0.00,Wunderground v.1.15,2013-03-20 09:20:00,
2013-03-20 05:30:00,29.1,19.5,30.08,WSW,246,1.0,3.0,67,0.00,,,0.00,Wunderground v.1.15,2013-03-20 09:30:00,
2013-03-20 05:40:00,28.7,20.1,30.08,WSW,246,1.0,1.0,70,0.00,,,0.00,Wunderground v.1.15,2013-03-20 09:40:00,
2013-03-20 05:50:00,28.2,20.0,30.08,WSW,246,0.0,1.0,71,0.00,,,0.00,Wunderground v.1.15,2013-03-20 09:50:00,
2013-03-20 06:00:00,28.3,19.4,30.07,WSW,246,1.0,1.0,69,0.00,,,0.00,Wunderground v.1.15,2013-03-20 10:00:00,
2013-03-20 06:10:00,28.0,19.5,30.08,WSW,246,0.0,0.0,70,0.00,,,0.00,Wunderground v.1.15,2013-03-20 10:10:00,
2013-03-20 06:20:00,27.6,19.4,30.07,WSW,246,0.0,0.0,71,0.00,,,0.00,Wunderground v.1.15,2013-03-20 10:20:00,
2013-03-20 06:30:00,27.6,19.8,30.07,WSW,246,1.0,1.0,72,0.00,,,0.00,Wunderground v.1.15,2013-03-20 10:30:00,
2013-03-20 06:40:00,27.6,19.8,30.07,WSW,250,1.0,1.0,72,0.00,,,0.00,Wunderground v.1.15,2013-03-20 10:40:00,
2013-03-20 06:51:00,27.5,19.3,30.07,WSW,250,1.0,1.0,71,0.00,,,0.00,Wunderground v.1.15,2013-03-20 10:51:00,
2013-03-20 07:01:00,27.2,19.7,30.08,WSW,250,0.0,0.0,73,0.00,,,0.00,Wunderground v.1.15,2013-03-20 11:01:00,
2013-03-20 07:10:00,27.0,19.5,30.08,WSW,250,0.0,0.0,73,0.00,,,0.00,Wunderground v.1.15,2013-03-20 11:10:00,
2013-03-20 07:16:00,26.7,19.5,30.08,WSW,250,0.0,0.0,74,0.00,,,0.00,Wunderground v.1.15,2013-03-20 11:16:00,
2013-03-20 07:30:00,26.3,19.5,30.08,WSW,250,0.0,0.0,75,0.00,,,0.00,Wunderground v.1.15,2013-03-20 11:30:00,
2013-03-20 07:40:00,25.9,19.4,30.09,WSW,250,0.0,0.0,76,0.00,,,0.00,Wunderground v.1.15,2013-03-20 11:40:00,
2013-03-20 07:50:00,25.7,19.5,30.09,WSW,250,0.0,0.0,77,0.00,,,0.00,Wunderground v.1.15,2013-03-20 11:50:00,
2013-03-20 08:00:00,25.8,19.6,30.09,WSW,250,0.0,0.0,77,0.00,,,0.00,Wunderground v.1.15,2013-03-20 12:00:00,
2013-03-20 08:10:00,26.2,20.3,30.09,WSW,247,1.0,4.0,78,0.00,,,0.00,Wunderground v.1.15,2013-03-20 12:10:00,
2013-03-20 08:16:00,26.6,20.7,30.10,WSW,247,1.0,4.0,78,0.00,,,0.00,Wunderground v.1.15,2013-03-20 12:16:00,
2013-03-20 08:30:00,28.3,21.1,30.10,West,259,2.0,5.0,74,0.00,,,0.00,Wunderground v.1.15,2013-03-20 12:30:00,
2013-03-20 08:40:00,28.9,20.3,30.10,WNW,296,4.0,4.0,70,0.00,,,0.00,Wunderground v.1.15,2013-03-20 12:40:00,
2013-03-20 08:50:00,29.0,20.4,30.10,West,271,3.0,5.0,70,0.00,,,0.00,Wunderground v.1.15,2013-03-20 12:50:00,
2013-03-20 09:00:00,29.2,20.6,30.10,WSW,255,4.0,8.0,70,0.00,,,0.00,Wunderground v.1.15,2013-03-20 13:00:00,
2013-03-20 09:10:00,29.1,19.8,30.09,West,272,5.0,5.0,68,0.00,,,0.00,Wunderground v.1.15,2013-03-20 13:10:00,
2013-03-20 09:20:00,29.9,19.9,30.09,WSW,249,4.0,7.0,66,0.00,,,0.00,Wunderground v.1.15,2013-03-20 13:20:00,
2013-03-20 09:31:00,30.2,19.5,30.09,WNW,301,6.0,6.0,64,0.00,,,0.00,Wunderground v.1.15,2013-03-20 13:31:00,
2013-03-20 09:40:00,30.7,19.6,30.09,WNW,300,4.0,9.0,63,0.00,,,0.00,Wunderground v.1.15,2013-03-20 13:40:00,
2013-03-20 09:50:00,30.7,19.2,30.09,WNW,286,6.0,9.0,62,0.00,,,0.00,Wunderground v.1.15,2013-03-20 13:50:00,
2013-03-20 10:01:00,30.8,19.3,30.09,West,280,6.0,8.0,62,0.00,,,0.00,Wunderground v.1.15,2013-03-20 14:01:00,
2013-03-20 10:10:00,30.7,19.2,30.09,NW,307,7.0,8.0,62,0.00,,,0.00,Wunderground v.1.15,2013-03-20 14:10:00,
2013-03-20 10:20:00,30.8,18.9,30.09,WNW,282,7.0,10.0,61,0.00,,,0.00,Wunderground v.1.15,2013-03-20 14:20:00,
2013-03-20 10:30:00,31.2,18.9,30.09,SW,236,8.0,8.0,60,0.00,,,0.00,Wunderground v.1.15,2013-03-20 14:30:00,
2013-03-20 10:40:00,31.2,18.1,30.09,West,277,8.0,8.0,58,0.00,,,0.00,Wunderground v.1.15,2013-03-20 14:40:00,
2013-03-20 10:51:00,31.6,17.7,30.09,WNW,298,7.0,7.0,56,0.00,,,0.00,Wunderground v.1.15,2013-03-20 14:51:00,
2013-03-20 11:00:00,31.1,17.6,30.09,West,275,7.0,9.0,57,0.00,,,0.00,Wunderground v.1.15,2013-03-20 15:00:00,
2013-03-20 11:11:00,31.0,18.7,30.09,WNW,286,7.0,7.0,60,0.00,,,0.01,Wunderground v.1.15,2013-03-20 15:11:00,
2013-03-20 11:20:00,31.9,19.6,30.09,NNW,327,6.0,9.0,60,0.00,,,0.01,Wunderground v.1.15,2013-03-20 15:20:00,
2013-03-20 11:30:00,31.7,19.4,30.09,West,267,7.0,11.0,60,0.00,,,0.01,Wunderground v.1.15,2013-03-20 15:30:00,
2013-03-20 11:40:00,31.2,17.7,30.09,WSW,247,8.0,11.0,57,0.00,,,0.01,Wunderground v.1.15,2013-03-20 15:40:00,
2013-03-20 11:50:00,31.9,18.8,30.09,SW,225,8.0,8.0,58,0.00,,,0.01,Wunderground v.1.15,2013-03-20 15:50:00,
2013-03-20 12:00:00,31.7,19.4,30.08,SW,224,7.0,9.0,60,0.00,,,0.01,Wunderground v.1.15,2013-03-20 16:00:00,
2013-03-20 12:10:00,31.0,18.7,30.08,WNW,298,10.0,12.0,60,0.00,,,0.01,Wunderground v.1.15,2013-03-20 16:10:00,
2013-03-20 12:20:00,30.7,18.4,30.09,WNW,283,10.0,10.0,60,0.00,,,0.01,Wunderground v.1.15,2013-03-20 16:20:00,
2013-03-20 12:30:00,30.6,17.2,30.09,West,271,10.0,10.0,57,0.00,,,0.01,Wunderground v.1.15,2013-03-20 16:30:00,
2013-03-20 12:41:00,30.7,18.1,30.09,West,277,8.0,18.0,59,0.00,,,0.01,Wunderground v.1.15,2013-03-20 16:41:00,
2013-03-20 12:50:00,30.8,18.1,30.09,West,267,10.0,18.0,59,0.00,,,0.01,Wunderground v.1.15,2013-03-20 16:50:00,
2013-03-20 13:00:00,30.7,16.8,30.09,NNW,331,8.0,8.0,56,0.00,,,0.01,Wunderground v.1.15,2013-03-20 17:00:00,
2013-03-20 13:10:00,30.9,16.6,30.09,NW,309,9.0,9.0,55,0.00,,,0.01,Wunderground v.1.15,2013-03-20 17:10:00,
2013-03-20 13:20:00,30.5,18.3,30.09,NW,315,10.0,12.0,60,0.00,,,0.01,Wunderground v.1.15,2013-03-20 17:20:00,
2013-03-20 13:30:00,30.7,17.7,30.08,WNW,298,8.0,10.0,58,0.00,,,0.01,Wunderground v.1.15,2013-03-20 17:30:00,
2013-03-20 13:40:00,31.5,17.6,30.08,West,265,8.0,18.0,56,0.00,,,0.01,Wunderground v.1.15,2013-03-20 17:40:00,
2013-03-20 13:50:00,32.0,17.6,30.08,West,259,9.0,13.0,55,0.00,,,0.01,Wunderground v.1.15,2013-03-20 17:50:00,
2013-03-20 14:00:00,31.0,15.8,30.08,SSW,204,9.0,9.0,53,0.00,,,0.01,Wunderground v.1.15,2013-03-20 18:00:00,
2013-03-20 14:10:00,30.6,16.7,30.08,West,268,8.0,9.0,56,0.00,,,0.01,Wunderground v.1.15,2013-03-20 18:10:00,
2013-03-20 14:21:00,31.3,17.8,30.07,NW,310,9.0,11.0,57,0.00,,,0.01,Wunderground v.1.15,2013-03-20 18:21:00,
2013-03-20 14:30:00,31.7,16.9,30.07,WNW,287,8.0,8.0,54,0.00,,,0.01,Wunderground v.1.15,2013-03-20 18:30:00,
2013-03-20 14:40:00,31.2,15.6,30.07,WNW,290,8.0,10.0,52,0.00,,,0.01,Wunderground v.1.15,2013-03-20 18:40:00,
2013-03-20 14:50:00,30.6,15.9,30.06,SW,214,7.0,7.0,54,0.00,,,0.01,Wunderground v.1.15,2013-03-20 18:50:00,
2013-03-20 15:00:00,30.6,16.3,30.06,West,262,7.0,7.0,55,0.00,,,0.01,Wunderground v.1.15,2013-03-20 19:00:00,
2013-03-20 15:10:00,30.8,16.5,30.06,West,260,6.0,12.0,55,0.00,,,0.01,Wunderground v.1.15,2013-03-20 19:10:00,
2013-03-20 15:20:00,30.9,14.9,30.05,West,263,8.0,8.0,51,0.00,,,0.01,Wunderground v.1.15,2013-03-20 19:20:00,
2013-03-20 15:30:00,32.1,16.0,30.05,West,262,9.0,9.0,51,0.00,,,0.01,Wunderground v.1.15,2013-03-20 19:30:00,
2013-03-20 15:40:00,31.4,14.9,30.04,West,281,8.0,8.0,50,0.00,,,0.01,Wunderground v.1.15,2013-03-20 19:40:00,
2013-03-20 15:50:00,31.9,14.4,30.04,WSW,242,9.0,9.0,48,0.00,,,0.01,Wunderground v.1.15,2013-03-20 19:50:00,
2013-03-20 16:00:00,32.5,15.0,30.04,WSW,245,9.0,9.0,48,0.00,,,0.01,Wunderground v.1.15,2013-03-20 20:00:00,
2013-03-20 16:06:00,32.2,14.7,30.03,NNW,343,8.0,9.0,48,0.00,,,0.01,Wunderground v.1.15,2013-03-20 20:06:00,
2013-03-20 16:21:00,32.8,16.2,30.03,WSW,242,9.0,9.0,50,0.00,,,0.01,Wunderground v.1.15,2013-03-20 20:21:00,
2013-03-20 16:30:00,32.5,15.9,30.03,North,355,10.0,12.0,50,0.00,,,0.02,Wunderground v.1.15,2013-03-20 20:30:00,
2013-03-20 16:40:00,31.4,14.9,30.03,WNW,300,9.0,12.0,50,0.00,,,0.02,Wunderground v.1.15,2013-03-20 20:40:00,
2013-03-20 16:51:00,31.2,13.8,30.03,West,262,8.0,13.0,48,0.00,,,0.02,Wunderground v.1.15,2013-03-20 20:51:00,
2013-03-20 17:01:00,30.3,13.4,30.03,West,271,10.0,10.0,49,0.00,,,0.02,Wunderground v.1.15,2013-03-20 21:01:00,
2013-03-20 17:20:00,31.9,15.8,30.03,West,264,8.0,10.0,51,0.00,,,0.02,Wunderground v.1.15,2013-03-20 21:20:00,
2013-03-20 17:30:00,30.8,13.9,30.04,West,273,10.0,10.0,49,0.00,,,0.02,Wunderground v.1.15,2013-03-20 21:30:00,
2013-03-20 17:40:00,30.3,12.9,30.04,WSW,244,10.0,10.0,48,0.00,,,0.02,Wunderground v.1.15,2013-03-20 21:40:00,
2013-03-20 17:50:00,29.7,12.8,30.05,WNW,283,6.0,10.0,49,0.00,,,0.02,Wunderground v.1.15,2013-03-20 21:50:00,
2013-03-20 18:01:00,29.2,12.8,30.04,West,259,7.0,9.0,50,0.00,,,0.02,Wunderground v.1.15,2013-03-20 22:01:00,
2013-03-20 18:10:00,28.8,12.9,30.05,WSW,239,8.0,8.0,51,0.00,,,0.02,Wunderground v.1.15,2013-03-20 22:10:00,
2013-03-20 18:21:00,28.9,13.0,30.05,WSW,257,6.0,6.0,51,0.00,,,0.02,Wunderground v.1.15,2013-03-20 22:21:00,
2013-03-20 18:30:00,28.3,13.8,30.05,West,279,8.0,8.0,54,0.00,,,0.02,Wunderground v.1.15,2013-03-20 22:30:00,
2013-03-20 18:40:00,27.9,13.0,30.06,WNW,286,7.0,8.0,53,0.00,,,0.02,Wunderground v.1.15,2013-03-20 22:40:00,
2013-03-20 18:51:00,27.8,12.9,30.06,WSW,255,5.0,8.0,53,0.00,,,0.02,Wunderground v.1.15,2013-03-20 22:51:00,
2013-03-20 19:00:00,27.4,13.3,30.06,North,355,7.0,10.0,55,0.00,,,0.02,Wunderground v.1.15,2013-03-20 23:00:00,
2013-03-20 19:11:00,26.9,13.7,30.07,West,274,9.0,9.0,57,0.00,,,0.02,Wunderground v.1.15,2013-03-20 23:11:00,
2013-03-20 19:21:00,26.4,13.2,30.07,NW,309,7.0,7.0,57,0.00,,,0.02,Wunderground v.1.15,2013-03-20 23:21:00,
2013-03-20 19:30:00,26.2,13.4,30.07,West,263,6.0,7.0,58,0.00,,,0.02,Wunderground v.1.15,2013-03-20 23:30:00,
2013-03-20 19:41:00,26.1,12.1,30.08,WSW,240,6.0,6.0,55,0.00,,,0.02,Wunderground v.1.15,2013-03-20 23:41:00,
2013-03-20 19:51:00,25.7,14.5,30.08,West,266,7.0,11.0,62,0.00,,,0.02,Wunderground v.1.15,2013-03-20 23:51:00,
2013-03-20 20:01:00,25.5,14.3,30.08,WNW,282,7.0,7.0,62,0.00,,,0.02,Wunderground v.1.15,2013-03-21 00:01:00,
2013-03-20 20:10:00,25.1,13.5,30.08,West,261,6.0,6.0,61,0.00,,,0.02,Wunderground v.1.15,2013-03-21 00:10:00,
2013-03-20 20:20:00,24.8,13.2,30.08,West,267,5.0,7.0,61,0.00,,,0.02,Wunderground v.1.15,2013-03-21 00:20:00,
2013-03-20 20:30:00,24.7,13.9,30.08,West,259,7.0,7.0,63,0.00,,,0.02,Wunderground v.1.15,2013-03-21 00:30:00,
2013-03-20 20:41:00,24.8,13.2,30.08,West,264,6.0,6.0,61,0.00,,,0.02,Wunderground v.1.15,2013-03-21 00:41:00,
2013-03-20 20:51:00,25.0,13.1,30.08,North,355,4.0,9.0,60,0.00,,,0.02,Wunderground v.1.15,2013-03-21 00:51:00,
2013-03-20 21:00:00,25.1,12.4,30.08,WNW,294,5.0,7.0,58,0.00,,,0.02,Wunderground v.1.15,2013-03-21 01:00:00,
2013-03-20 21:10:00,25.1,12.0,30.08,West,266,5.0,5.0,57,0.00,,,0.02,Wunderground v.1.15,2013-03-21 01:10:00,
2013-03-20 21:20:00,25.0,11.9,30.07,West,271,5.0,5.0,57,0.00,,,0.02,Wunderground v.1.15,2013-03-21 01:20:00,
2013-03-20 21:30:00,24.8,11.7,30.08,WSW,248,5.0,10.0,57,0.00,,,0.02,Wunderground v.1.15,2013-03-21 01:30:00,
2013-03-20 21:40:00,24.7,11.2,30.08,WNW,302,5.0,5.0,56,0.00,,,0.02,Wunderground v.1.15,2013-03-21 01:40:00,
2013-03-20 21:51:00,24.7,11.6,30.08,WSW,248,5.0,6.0,57,0.00,,,0.02,Wunderground v.1.15,2013-03-21 01:51:00,
2013-03-20 22:00:00,24.6,12.3,30.08,West,263,6.0,6.0,59,0.00,,,0.02,Wunderground v.1.15,2013-03-21 02:00:00,
2013-03-20 22:10:00,24.4,12.9,30.07,West,259,4.0,4.0,61,0.00,,,0.02,Wunderground v.1.15,2013-03-21 02:10:00,
2013-03-20 22:21:00,24.1,12.6,30.07,NW,309,3.0,7.0,61,0.00,,,0.02,Wunderground v.1.15,2013-03-21 02:21:00,
2013-03-20 22:30:00,23.8,12.7,30.07,NNW,333,3.0,7.0,62,0.00,,,0.02,Wunderground v.1.15,2013-03-21 02:30:00,
2013-03-20 22:40:00,23.6,11.7,30.07,WSW,257,3.0,3.0,60,0.00,,,0.02,Wunderground v.1.15,2013-03-21 02:40:00,
2013-03-20 22:50:00,23.5,12.0,30.07,SW,234,3.0,3.0,61,0.00,,,0.02,Wunderground v.1.15,2013-03-21 02:50:00,
2013-03-20 23:00:00,23.3,11.8,30.07,WSW,247,2.0,3.0,61,0.00,,,0.02,Wunderground v.1.15,2013-03-21 03:00:00,
2013-03-20 23:11:00,23.3,12.2,30.07,WSW,257,3.0,3.0,62,0.00,,,0.02,Wunderground v.1.15,2013-03-21 03:11:00,
2013-03-20 23:20:00,23.1,12.0,30.07,West,261,3.0,3.0,62,0.00,,,0.02,Wunderground v.1.15,2013-03-21 03:20:00,
2013-03-20 23:30:00,23.0,11.9,30.07,WNW,300,2.0,3.0,62,0.00,,,0.02,Wunderground v.1.15,2013-03-21 03:30:00,
2013-03-20 23:40:00,23.0,11.5,30.07,WNW,287,3.0,3.0,61,0.00,,,0.02,Wunderground v.1.15,2013-03-21 03:40:00,
2013-03-20 23:50:00,23.1,12.0,30.07,West,270,3.0,5.0,62,0.00,,,0.02,Wunderground v.1.15,2013-03-21 03:50:00,